sensor_id;sensor_type;location;lat;lon;timestamp;P1;durP1;ratioP1;P2;durP2;ratioP2
51981;SDS011;37998;53.416;6.730;2023-07-13T00:00:06;13.80;;;3.53;;
51981;SDS011;37998;53.416;6.730;2023-07-13T00:02:40;10.63;;;3.38;;
51981;SDS011;37998;53.416;6.730;2023-07-13T00:05:06;14.20;;;3.42;;
51981;SDS011;37998;53.416;6.730;2023-07-13T00:07:33;18.98;;;4.35;;
51981;SDS011;37998;53.416;6.730;2023-07-13T00:09:59;10.93;;;3.22;;
51981;SDS011;37998;53.416;6.730;2023-07-13T00:12:33;10.88;;;3.00;;
51981;SDS011;37998;53.416;6.730;2023-07-13T00:15:04;19.65;;;4.07;;
51981;SDS011;37998;53.416;6.730;2023-07-13T00:17:41;17.27;;;4.40;;
51981;SDS011;37998;53.416;6.730;2023-07-13T00:20:10;18.92;;;3.90;;
51981;SDS011;37998;53.416;6.730;2023-07-13T00:22:37;14.88;;;4.47;;
51981;SDS011;37998;53.416;6.730;2023-07-13T00:25:03;15.77;;;4.15;;
51981;SDS011;37998;53.416;6.730;2023-07-13T00:27:29;13.88;;;4.10;;
51981;SDS011;37998;53.416;6.730;2023-07-13T00:29:57;11.90;;;3.75;;
51981;SDS011;37998;53.416;6.730;2023-07-13T00:32:27;17.90;;;4.28;;
51981;SDS011;37998;53.416;6.730;2023-07-13T00:34:55;19.95;;;4.60;;
51981;SDS011;37998;53.416;6.730;2023-07-13T00:37:22;21.02;;;4.88;;
51981;SDS011;37998;53.416;6.730;2023-07-13T00:39:51;13.48;;;4.85;;
51981;SDS011;37998;53.416;6.730;2023-07-13T00:42:17;15.02;;;3.72;;
51981;SDS011;37998;53.416;6.730;2023-07-13T00:45:01;17.80;;;3.95;;
51981;SDS011;37998;53.416;6.730;2023-07-13T00:47:50;17.48;;;4.10;;
51981;SDS011;37998;53.416;6.730;2023-07-13T00:50:17;18.23;;;4.25;;
51981;SDS011;37998;53.416;6.730;2023-07-13T00:52:46;22.83;;;4.32;;
51981;SDS011;37998;53.416;6.730;2023-07-13T00:55:14;16.67;;;3.70;;
51981;SDS011;37998;53.416;6.730;2023-07-13T00:57:41;20.45;;;4.32;;
51981;SDS011;37998;53.416;6.730;2023-07-13T01:00:10;14.13;;;3.80;;
51981;SDS011;37998;53.416;6.730;2023-07-13T01:02:38;15.15;;;4.32;;
51981;SDS011;37998;53.416;6.730;2023-07-13T01:05:15;20.58;;;4.07;;
51981;SDS011;37998;53.416;6.730;2023-07-13T01:07:46;11.85;;;3.53;;
51981;SDS011;37998;53.416;6.730;2023-07-13T01:10:15;14.57;;;4.28;;
51981;SDS011;37998;53.416;6.730;2023-07-13T01:12:41;16.90;;;4.25;;
51981;SDS011;37998;53.416;6.730;2023-07-13T01:18:04;12.27;;;3.70;;
51981;SDS011;37998;53.416;6.730;2023-07-13T01:21:04;15.55;;;4.13;;
51981;SDS011;37998;53.416;6.730;2023-07-13T01:23:31;12.98;;;3.85;;
51981;SDS011;37998;53.416;6.730;2023-07-13T01:25:57;10.07;;;3.67;;
51981;SDS011;37998;53.416;6.730;2023-07-13T01:28:28;10.77;;;3.90;;
51981;SDS011;37998;53.416;6.730;2023-07-13T01:30:56;14.45;;;4.30;;
51981;SDS011;37998;53.416;6.730;2023-07-13T01:33:24;11.82;;;3.63;;
51981;SDS011;37998;53.416;6.730;2023-07-13T01:35:50;17.60;;;4.70;;
51981;SDS011;37998;53.416;6.730;2023-07-13T01:38:17;15.80;;;4.20;;
51981;SDS011;37998;53.416;6.730;2023-07-13T01:40:45;13.23;;;3.95;;
51981;SDS011;37998;53.416;6.730;2023-07-13T01:43:11;9.48;;;3.25;;
51981;SDS011;37998;53.416;6.730;2023-07-13T01:45:38;15.60;;;3.97;;
51981;SDS011;37998;53.416;6.730;2023-07-13T01:48:04;13.35;;;4.03;;
51981;SDS011;37998;53.416;6.730;2023-07-13T01:50:32;13.90;;;3.58;;
51981;SDS011;37998;53.416;6.730;2023-07-13T01:53:02;11.63;;;3.80;;
51981;SDS011;37998;53.416;6.730;2023-07-13T01:55:28;12.75;;;4.15;;
51981;SDS011;37998;53.416;6.730;2023-07-13T01:57:55;10.20;;;3.20;;
51981;SDS011;37998;53.416;6.730;2023-07-13T02:00:22;16.35;;;4.07;;
51981;SDS011;37998;53.416;6.730;2023-07-13T02:02:48;11.77;;;3.10;;
51981;SDS011;37998;53.416;6.730;2023-07-13T02:05:17;14.68;;;4.45;;
51981;SDS011;37998;53.416;6.730;2023-07-13T02:07:43;11.25;;;3.28;;
51981;SDS011;37998;53.416;6.730;2023-07-13T02:10:09;14.93;;;3.35;;
51981;SDS011;37998;53.416;6.730;2023-07-13T02:12:36;13.50;;;4.10;;
51981;SDS011;37998;53.416;6.730;2023-07-13T02:15:03;13.07;;;3.45;;
51981;SDS011;37998;53.416;6.730;2023-07-13T02:17:34;10.52;;;3.47;;
51981;SDS011;37998;53.416;6.730;2023-07-13T02:20:01;12.25;;;3.60;;
51981;SDS011;37998;53.416;6.730;2023-07-13T02:22:34;12.50;;;3.70;;
51981;SDS011;37998;53.416;6.730;2023-07-13T02:25:00;11.70;;;3.90;;
51981;SDS011;37998;53.416;6.730;2023-07-13T02:27:26;8.90;;;3.20;;
51981;SDS011;37998;53.416;6.730;2023-07-13T02:29:53;12.70;;;4.18;;
51981;SDS011;37998;53.416;6.730;2023-07-13T02:32:20;12.35;;;3.72;;
51981;SDS011;37998;53.416;6.730;2023-07-13T02:34:46;9.57;;;3.35;;
51981;SDS011;37998;53.416;6.730;2023-07-13T02:37:13;10.93;;;3.58;;
51981;SDS011;37998;53.416;6.730;2023-07-13T02:39:39;15.43;;;3.75;;
51981;SDS011;37998;53.416;6.730;2023-07-13T02:42:07;11.90;;;4.30;;
51981;SDS011;37998;53.416;6.730;2023-07-13T02:44:34;15.02;;;3.55;;
51981;SDS011;37998;53.416;6.730;2023-07-13T02:47:03;9.52;;;3.55;;
51981;SDS011;37998;53.416;6.730;2023-07-13T02:49:29;12.57;;;3.25;;
51981;SDS011;37998;53.416;6.730;2023-07-13T02:51:55;15.88;;;3.50;;
51981;SDS011;37998;53.416;6.730;2023-07-13T02:54:21;10.60;;;3.17;;
51981;SDS011;37998;53.416;6.730;2023-07-13T02:56:53;14.07;;;2.95;;
51981;SDS011;37998;53.416;6.730;2023-07-13T02:59:19;9.55;;;3.28;;
51981;SDS011;37998;53.416;6.730;2023-07-13T03:01:45;8.98;;;2.50;;
51981;SDS011;37998;53.416;6.730;2023-07-13T03:04:11;7.78;;;2.80;;
51981;SDS011;37998;53.416;6.730;2023-07-13T03:06:38;8.95;;;2.60;;
51981;SDS011;37998;53.416;6.730;2023-07-13T03:09:04;10.20;;;2.88;;
51981;SDS011;37998;53.416;6.730;2023-07-13T03:11:33;7.10;;;2.65;;
51981;SDS011;37998;53.416;6.730;2023-07-13T03:14:07;7.68;;;2.75;;
51981;SDS011;37998;53.416;6.730;2023-07-13T03:16:39;9.35;;;2.63;;
51981;SDS011;37998;53.416;6.730;2023-07-13T03:19:05;10.20;;;2.38;;
51981;SDS011;37998;53.416;6.730;2023-07-13T03:21:32;7.10;;;2.22;;
51981;SDS011;37998;53.416;6.730;2023-07-13T03:23:58;6.50;;;2.08;;
51981;SDS011;37998;53.416;6.730;2023-07-13T03:26:25;6.93;;;1.98;;
51981;SDS011;37998;53.416;6.730;2023-07-13T03:28:56;8.18;;;1.92;;
51981;SDS011;37998;53.416;6.730;2023-07-13T03:31:25;8.45;;;2.72;;
51981;SDS011;37998;53.416;6.730;2023-07-13T03:33:54;7.03;;;2.30;;
51981;SDS011;37998;53.416;6.730;2023-07-13T03:36:28;5.32;;;1.88;;
51981;SDS011;37998;53.416;6.730;2023-07-13T03:38:59;4.57;;;2.17;;
51981;SDS011;37998;53.416;6.730;2023-07-13T03:41:34;7.20;;;2.20;;
51981;SDS011;37998;53.416;6.730;2023-07-13T03:44:01;6.75;;;1.92;;
51981;SDS011;37998;53.416;6.730;2023-07-13T03:46:27;8.85;;;2.10;;
51981;SDS011;37998;53.416;6.730;2023-07-13T03:48:53;6.00;;;2.00;;
51981;SDS011;37998;53.416;6.730;2023-07-13T03:51:21;9.20;;;2.08;;
51981;SDS011;37998;53.416;6.730;2023-07-13T03:53:49;5.82;;;2.30;;
51981;SDS011;37998;53.416;6.730;2023-07-13T03:56:18;8.32;;;2.58;;
51981;SDS011;37998;53.416;6.730;2023-07-13T03:58:45;7.18;;;2.13;;
51981;SDS011;37998;53.416;6.730;2023-07-13T04:01:19;8.18;;;2.53;;
51981;SDS011;37998;53.416;6.730;2023-07-13T04:03:46;7.03;;;2.30;;
51981;SDS011;37998;53.416;6.730;2023-07-13T04:06:20;10.20;;;2.58;;
51981;SDS011;37998;53.416;6.730;2023-07-13T04:08:49;11.35;;;2.92;;
51981;SDS011;37998;53.416;6.730;2023-07-13T04:11:24;9.90;;;3.13;;
51981;SDS011;37998;53.416;6.730;2023-07-13T04:13:53;12.25;;;3.03;;
51981;SDS011;37998;53.416;6.730;2023-07-13T04:16:20;9.68;;;3.50;;
51981;SDS011;37998;53.416;6.730;2023-07-13T04:18:50;12.85;;;3.00;;
51981;SDS011;37998;53.416;6.730;2023-07-13T04:21:20;10.73;;;3.45;;
51981;SDS011;37998;53.416;6.730;2023-07-13T04:23:46;13.48;;;3.22;;
51981;SDS011;37998;53.416;6.730;2023-07-13T04:26:12;15.98;;;3.60;;
51981;SDS011;37998;53.416;6.730;2023-07-13T04:28:38;14.70;;;3.53;;
51981;SDS011;37998;53.416;6.730;2023-07-13T04:31:04;7.65;;;3.75;;
51981;SDS011;37998;53.416;6.730;2023-07-13T04:33:31;16.75;;;4.60;;
51981;SDS011;37998;53.416;6.730;2023-07-13T04:35:57;14.40;;;4.28;;
51981;SDS011;37998;53.416;6.730;2023-07-13T04:38:26;13.70;;;3.67;;
51981;SDS011;37998;53.416;6.730;2023-07-13T04:40:57;15.20;;;4.18;;
51981;SDS011;37998;53.416;6.730;2023-07-13T04:43:34;13.85;;;4.13;;
51981;SDS011;37998;53.416;6.730;2023-07-13T04:46:11;13.68;;;4.78;;
51981;SDS011;37998;53.416;6.730;2023-07-13T04:48:40;12.98;;;4.15;;
51981;SDS011;37998;53.416;6.730;2023-07-13T04:51:07;14.68;;;4.00;;
51981;SDS011;37998;53.416;6.730;2023-07-13T04:53:33;19.95;;;4.35;;
51981;SDS011;37998;53.416;6.730;2023-07-13T04:55:59;15.65;;;4.55;;
51981;SDS011;37998;53.416;6.730;2023-07-13T04:58:27;16.08;;;4.40;;
51981;SDS011;37998;53.416;6.730;2023-07-13T05:00:53;14.30;;;4.25;;
51981;SDS011;37998;53.416;6.730;2023-07-13T05:03:24;20.42;;;4.63;;
51981;SDS011;37998;53.416;6.730;2023-07-13T05:05:56;16.83;;;4.68;;
51981;SDS011;37998;53.416;6.730;2023-07-13T05:08:24;14.55;;;4.40;;
51981;SDS011;37998;53.416;6.730;2023-07-13T05:10:50;15.25;;;4.63;;
51981;SDS011;37998;53.416;6.730;2023-07-13T05:13:17;18.95;;;4.43;;
51981;SDS011;37998;53.416;6.730;2023-07-13T05:15:43;15.63;;;4.20;;
51981;SDS011;37998;53.416;6.730;2023-07-13T05:18:10;13.35;;;3.78;;
51981;SDS011;37998;53.416;6.730;2023-07-13T05:20:38;10.77;;;4.07;;
51981;SDS011;37998;53.416;6.730;2023-07-13T05:23:05;11.63;;;4.25;;
51981;SDS011;37998;53.416;6.730;2023-07-13T05:25:34;16.48;;;5.18;;
51981;SDS011;37998;53.416;6.730;2023-07-13T05:28:00;15.68;;;4.53;;
51981;SDS011;37998;53.416;6.730;2023-07-13T05:30:27;15.77;;;4.22;;
51981;SDS011;37998;53.416;6.730;2023-07-13T05:32:56;18.30;;;4.47;;
51981;SDS011;37998;53.416;6.730;2023-07-13T05:35:22;14.38;;;3.83;;
51981;SDS011;37998;53.416;6.730;2023-07-13T05:37:54;9.93;;;3.65;;
51981;SDS011;37998;53.416;6.730;2023-07-13T05:40:20;14.95;;;4.50;;
51981;SDS011;37998;53.416;6.730;2023-07-13T05:42:46;11.30;;;3.38;;
51981;SDS011;37998;53.416;6.730;2023-07-13T05:45:12;12.60;;;4.20;;
51981;SDS011;37998;53.416;6.730;2023-07-13T05:47:38;14.45;;;3.70;;
51981;SDS011;37998;53.416;6.730;2023-07-13T05:50:07;16.38;;;3.80;;
51981;SDS011;37998;53.416;6.730;2023-07-13T05:52:33;15.27;;;4.28;;
51981;SDS011;37998;53.416;6.730;2023-07-13T05:54:59;14.70;;;4.35;;
51981;SDS011;37998;53.416;6.730;2023-07-13T05:57:25;15.07;;;4.10;;
51981;SDS011;37998;53.416;6.730;2023-07-13T05:59:54;12.90;;;3.83;;
51981;SDS011;37998;53.416;6.730;2023-07-13T06:02:24;10.90;;;3.92;;
51981;SDS011;37998;53.416;6.730;2023-07-13T06:04:51;10.75;;;3.30;;
51981;SDS011;37998;53.416;6.730;2023-07-13T06:07:17;12.90;;;4.07;;
51981;SDS011;37998;53.416;6.730;2023-07-13T06:09:46;11.15;;;4.00;;
51981;SDS011;37998;53.416;6.730;2023-07-13T06:12:12;12.73;;;3.92;;
51981;SDS011;37998;53.416;6.730;2023-07-13T06:14:38;7.57;;;3.15;;
51981;SDS011;37998;53.416;6.730;2023-07-13T06:17:12;8.90;;;3.53;;
51981;SDS011;37998;53.416;6.730;2023-07-13T06:19:44;10.85;;;3.60;;
51981;SDS011;37998;53.416;6.730;2023-07-13T06:22:10;10.65;;;4.05;;
51981;SDS011;37998;53.416;6.730;2023-07-13T06:24:39;15.30;;;3.50;;
51981;SDS011;37998;53.416;6.730;2023-07-13T06:27:05;8.75;;;3.22;;
51981;SDS011;37998;53.416;6.730;2023-07-13T06:29:31;7.18;;;3.10;;
51981;SDS011;37998;53.416;6.730;2023-07-13T06:32:01;6.18;;;2.67;;
51981;SDS011;37998;53.416;6.730;2023-07-13T06:34:27;10.95;;;2.83;;
51981;SDS011;37998;53.416;6.730;2023-07-13T06:36:53;9.07;;;3.45;;
51981;SDS011;37998;53.416;6.730;2023-07-13T06:39:19;8.88;;;3.20;;
51981;SDS011;37998;53.416;6.730;2023-07-13T06:41:45;7.97;;;2.97;;
51981;SDS011;37998;53.416;6.730;2023-07-13T06:44:13;8.75;;;3.22;;
51981;SDS011;37998;53.416;6.730;2023-07-13T06:46:39;10.80;;;2.72;;
51981;SDS011;37998;53.416;6.730;2023-07-13T06:49:07;10.68;;;3.00;;
51981;SDS011;37998;53.416;6.730;2023-07-13T06:51:34;10.70;;;3.08;;
51981;SDS011;37998;53.416;6.730;2023-07-13T06:54:00;11.05;;;2.90;;
51981;SDS011;37998;53.416;6.730;2023-07-13T06:56:26;7.18;;;2.70;;
51981;SDS011;37998;53.416;6.730;2023-07-13T06:58:52;10.27;;;3.05;;
51981;SDS011;37998;53.416;6.730;2023-07-13T07:01:18;7.45;;;2.30;;
51981;SDS011;37998;53.416;6.730;2023-07-13T07:03:44;7.28;;;2.08;;
51981;SDS011;37998;53.416;6.730;2023-07-13T07:06:15;10.35;;;2.63;;
51981;SDS011;37998;53.416;6.730;2023-07-13T07:08:47;5.93;;;2.78;;
51981;SDS011;37998;53.416;6.730;2023-07-13T07:11:14;5.00;;;2.13;;
51981;SDS011;37998;53.416;6.730;2023-07-13T07:13:44;7.63;;;2.60;;
51981;SDS011;37998;53.416;6.730;2023-07-13T07:16:10;7.75;;;2.83;;
51981;SDS011;37998;53.416;6.730;2023-07-13T07:18:36;9.32;;;2.70;;
51981;SDS011;37998;53.416;6.730;2023-07-13T07:21:05;7.35;;;1.88;;
51981;SDS011;37998;53.416;6.730;2023-07-13T07:23:31;5.18;;;2.10;;
51981;SDS011;37998;53.416;6.730;2023-07-13T07:25:57;5.50;;;1.58;;
51981;SDS011;37998;53.416;6.730;2023-07-13T07:28:23;7.88;;;2.40;;
51981;SDS011;37998;53.416;6.730;2023-07-13T07:30:52;6.43;;;1.60;;
51981;SDS011;37998;53.416;6.730;2023-07-13T07:33:19;4.95;;;1.75;;
51981;SDS011;37998;53.416;6.730;2023-07-13T07:35:45;3.60;;;2.05;;
51981;SDS011;37998;53.416;6.730;2023-07-13T07:38:12;4.25;;;1.73;;
51981;SDS011;37998;53.416;6.730;2023-07-13T07:40:38;4.65;;;1.60;;
51981;SDS011;37998;53.416;6.730;2023-07-13T07:43:06;6.35;;;2.05;;
51981;SDS011;37998;53.416;6.730;2023-07-13T07:45:34;5.22;;;1.85;;
51981;SDS011;37998;53.416;6.730;2023-07-13T07:48:00;3.60;;;1.70;;
51981;SDS011;37998;53.416;6.730;2023-07-13T07:50:27;6.93;;;2.35;;
51981;SDS011;37998;53.416;6.730;2023-07-13T07:52:53;5.75;;;1.60;;
51981;SDS011;37998;53.416;6.730;2023-07-13T07:55:21;7.65;;;1.85;;
51981;SDS011;37998;53.416;6.730;2023-07-13T07:57:50;5.15;;;1.65;;
51981;SDS011;37998;53.416;6.730;2023-07-13T08:00:17;4.15;;;1.80;;
51981;SDS011;37998;53.416;6.730;2023-07-13T08:02:48;8.85;;;2.22;;
51981;SDS011;37998;53.416;6.730;2023-07-13T08:05:17;5.00;;;2.05;;
51981;SDS011;37998;53.416;6.730;2023-07-13T08:07:43;5.15;;;1.83;;
51981;SDS011;37998;53.416;6.730;2023-07-13T08:10:09;6.38;;;1.75;;
51981;SDS011;37998;53.416;6.730;2023-07-13T08:12:36;5.95;;;1.42;;
51981;SDS011;37998;53.416;6.730;2023-07-13T08:15:04;3.13;;;1.63;;
51981;SDS011;37998;53.416;6.730;2023-07-13T08:17:31;8.35;;;2.05;;
51981;SDS011;37998;53.416;6.730;2023-07-13T08:19:57;2.38;;;1.40;;
51981;SDS011;37998;53.416;6.730;2023-07-13T08:22:23;4.65;;;1.52;;
51981;SDS011;37998;53.416;6.730;2023-07-13T08:24:49;2.50;;;1.40;;
51981;SDS011;37998;53.416;6.730;2023-07-13T08:27:21;7.57;;;2.10;;
51981;SDS011;37998;53.416;6.730;2023-07-13T08:29:48;3.58;;;1.40;;
51981;SDS011;37998;53.416;6.730;2023-07-13T08:32:15;6.47;;;1.40;;
51981;SDS011;37998;53.416;6.730;2023-07-13T08:34:42;2.95;;;1.35;;
51981;SDS011;37998;53.416;6.730;2023-07-13T08:37:08;3.20;;;1.50;;
51981;SDS011;37998;53.416;6.730;2023-07-13T08:39:35;5.78;;;1.60;;
51981;SDS011;37998;53.416;6.730;2023-07-13T08:42:02;4.47;;;1.63;;
51981;SDS011;37998;53.416;6.730;2023-07-13T08:47:37;3.33;;;1.38;;
51981;SDS011;37998;53.416;6.730;2023-07-13T08:50:11;3.60;;;1.77;;
51981;SDS011;37998;53.416;6.730;2023-07-13T08:52:40;3.42;;;1.60;;
51981;SDS011;37998;53.416;6.730;2023-07-13T08:55:13;2.13;;;1.30;;
51981;SDS011;37998;53.416;6.730;2023-07-13T08:57:43;3.47;;;1.63;;
51981;SDS011;37998;53.416;6.730;2023-07-13T09:00:14;3.22;;;1.65;;
51981;SDS011;37998;53.416;6.730;2023-07-13T09:02:42;3.50;;;1.40;;
51981;SDS011;37998;53.416;6.730;2023-07-13T09:05:14;2.72;;;1.60;;
51981;SDS011;37998;53.416;6.730;2023-07-13T09:10:20;2.15;;;1.38;;
51981;SDS011;37998;53.416;6.730;2023-07-13T09:13:07;4.80;;;1.60;;
51981;SDS011;37998;53.416;6.730;2023-07-13T09:15:55;8.55;;;1.95;;
51981;SDS011;37998;53.416;6.730;2023-07-13T09:18:26;5.93;;;2.10;;
51981;SDS011;37998;53.416;6.730;2023-07-13T09:23:27;7.45;;;2.05;;
51981;SDS011;37998;53.416;6.730;2023-07-13T09:25:58;7.40;;;2.95;;
51981;SDS011;37998;53.416;6.730;2023-07-13T09:28:28;6.00;;;2.05;;
51981;SDS011;37998;53.416;6.730;2023-07-13T09:31:14;4.93;;;1.70;;
51981;SDS011;37998;53.416;6.730;2023-07-13T09:33:47;2.10;;;1.43;;
51981;SDS011;37998;53.416;6.730;2023-07-13T09:38:57;4.55;;;1.50;;
51981;SDS011;37998;53.416;6.730;2023-07-13T09:41:41;2.33;;;1.63;;
51981;SDS011;37998;53.416;6.730;2023-07-13T09:44:17;4.05;;;2.20;;
51981;SDS011;37998;53.416;6.730;2023-07-13T09:46:54;7.22;;;2.17;;
51981;SDS011;37998;53.416;6.730;2023-07-13T09:49:25;8.82;;;2.35;;
51981;SDS011;37998;53.416;6.730;2023-07-13T09:51:59;5.38;;;2.20;;
51981;SDS011;37998;53.416;6.730;2023-07-13T09:54:27;4.32;;;2.00;;
51981;SDS011;37998;53.416;6.730;2023-07-13T09:56:54;5.90;;;2.00;;
51981;SDS011;37998;53.416;6.730;2023-07-13T09:59:22;8.32;;;2.40;;
51981;SDS011;37998;53.416;6.730;2023-07-13T10:01:54;7.65;;;2.22;;
51981;SDS011;37998;53.416;6.730;2023-07-13T10:04:22;5.13;;;2.05;;
51981;SDS011;37998;53.416;6.730;2023-07-13T10:07:11;10.10;;;2.47;;
51981;SDS011;37998;53.416;6.730;2023-07-13T10:09:41;7.05;;;1.52;;
51981;SDS011;37998;53.416;6.730;2023-07-13T10:12:16;4.18;;;1.60;;
51981;SDS011;37998;53.416;6.730;2023-07-13T10:14:43;2.53;;;1.80;;
51981;SDS011;37998;53.416;6.730;2023-07-13T10:17:13;5.00;;;1.60;;
51981;SDS011;37998;53.416;6.730;2023-07-13T10:19:40;2.75;;;1.50;;
51981;SDS011;37998;53.416;6.730;2023-07-13T10:22:29;3.90;;;1.52;;
51981;SDS011;37998;53.416;6.730;2023-07-13T10:27:43;3.17;;;0.90;;
51981;SDS011;37998;53.416;6.730;2023-07-13T10:30:16;2.10;;;1.10;;
51981;SDS011;37998;53.416;6.730;2023-07-13T10:32:58;4.70;;;1.30;;
51981;SDS011;37998;53.416;6.730;2023-07-13T10:35:27;2.55;;;1.45;;
51981;SDS011;37998;53.416;6.730;2023-07-13T10:38:02;4.13;;;1.02;;
51981;SDS011;37998;53.416;6.730;2023-07-13T10:40:39;3.88;;;1.13;;
51981;SDS011;37998;53.416;6.730;2023-07-13T10:45:43;2.38;;;1.23;;
51981;SDS011;37998;53.416;6.730;2023-07-13T10:48:13;3.38;;;1.20;;
51981;SDS011;37998;53.416;6.730;2023-07-13T10:50:41;2.28;;;1.30;;
51981;SDS011;37998;53.416;6.730;2023-07-13T10:53:27;2.08;;;1.10;;
51981;SDS011;37998;53.416;6.730;2023-07-13T10:56:04;5.35;;;1.40;;
51981;SDS011;37998;53.416;6.730;2023-07-13T10:59:23;3.03;;;1.20;;
51981;SDS011;37998;53.416;6.730;2023-07-13T11:02:00;10.30;;;1.52;;
51981;SDS011;37998;53.416;6.730;2023-07-13T11:04:48;3.58;;;1.10;;
51981;SDS011;37998;53.416;6.730;2023-07-13T11:07:22;3.88;;;1.00;;
51981;SDS011;37998;53.416;6.730;2023-07-13T11:09:52;3.42;;;1.10;;
51981;SDS011;37998;53.416;6.730;2023-07-13T11:17:24;3.38;;;1.35;;
51981;SDS011;37998;53.416;6.730;2023-07-13T11:19:53;1.60;;;1.17;;
51981;SDS011;37998;53.416;6.730;2023-07-13T11:22:25;2.45;;;1.20;;
51981;SDS011;37998;53.416;6.730;2023-07-13T11:28:07;3.72;;;1.15;;
51981;SDS011;37998;53.416;6.730;2023-07-13T11:30:59;4.53;;;1.50;;
51981;SDS011;37998;53.416;6.730;2023-07-13T11:34:12;3.20;;;1.17;;
51981;SDS011;37998;53.416;6.730;2023-07-13T11:36:29;4.30;;;1.55;;
51981;SDS011;37998;53.416;6.730;2023-07-13T11:41:35;6.07;;;1.50;;
51981;SDS011;37998;53.416;6.730;2023-07-13T11:44:12;3.97;;;1.58;;
51981;SDS011;37998;53.416;6.730;2023-07-13T11:46:47;5.40;;;1.58;;
51981;SDS011;37998;53.416;6.730;2023-07-13T11:49:19;4.30;;;1.23;;
51981;SDS011;37998;53.416;6.730;2023-07-13T11:51:51;2.70;;;1.35;;
51981;SDS011;37998;53.416;6.730;2023-07-13T11:54:23;1.65;;;1.15;;
51981;SDS011;37998;53.416;6.730;2023-07-13T11:59:56;3.90;;;1.73;;
51981;SDS011;37998;53.416;6.730;2023-07-13T12:02:29;3.17;;;1.50;;
51981;SDS011;37998;53.416;6.730;2023-07-13T12:05:00;5.50;;;1.63;;
51981;SDS011;37998;53.416;6.730;2023-07-13T12:07:30;5.13;;;1.67;;
51981;SDS011;37998;53.416;6.730;2023-07-13T12:12:46;3.50;;;1.50;;
51981;SDS011;37998;53.416;6.730;2023-07-13T12:15:27;4.65;;;1.48;;
51981;SDS011;37998;53.416;6.730;2023-07-13T12:18:24;2.80;;;1.50;;
51981;SDS011;37998;53.416;6.730;2023-07-13T12:20:55;4.40;;;1.80;;
51981;SDS011;37998;53.416;6.730;2023-07-13T12:23:28;2.30;;;1.50;;
51981;SDS011;37998;53.416;6.730;2023-07-13T12:25:57;2.80;;;1.27;;
51981;SDS011;37998;53.416;6.730;2023-07-13T12:31:03;4.30;;;1.55;;
51981;SDS011;37998;53.416;6.730;2023-07-13T12:33:32;5.00;;;1.85;;
51981;SDS011;37998;53.416;6.730;2023-07-13T12:36:00;8.57;;;2.13;;
51981;SDS011;37998;53.416;6.730;2023-07-13T12:38:28;4.25;;;2.17;;
51981;SDS011;37998;53.416;6.730;2023-07-13T12:40:55;4.40;;;1.98;;
51981;SDS011;37998;53.416;6.730;2023-07-13T12:43:23;4.85;;;1.73;;
51981;SDS011;37998;53.416;6.730;2023-07-13T12:45:55;5.60;;;1.60;;
51981;SDS011;37998;53.416;6.730;2023-07-13T12:48:22;5.35;;;2.30;;
51981;SDS011;37998;53.416;6.730;2023-07-13T12:50:49;4.47;;;1.90;;
51981;SDS011;37998;53.416;6.730;2023-07-13T12:53:17;6.80;;;1.65;;
51981;SDS011;37998;53.416;6.730;2023-07-13T12:55:47;3.65;;;1.70;;
51981;SDS011;37998;53.416;6.730;2023-07-13T13:01:06;4.15;;;1.60;;
51981;SDS011;37998;53.416;6.730;2023-07-13T13:03:36;7.63;;;2.20;;
51981;SDS011;37998;53.416;6.730;2023-07-13T13:08:35;7.90;;;2.00;;
51981;SDS011;37998;53.416;6.730;2023-07-13T13:11:02;6.68;;;1.80;;
51981;SDS011;37998;53.416;6.730;2023-07-13T13:13:28;8.35;;;2.30;;
51981;SDS011;37998;53.416;6.730;2023-07-13T13:15:55;6.53;;;2.58;;
51981;SDS011;37998;53.416;6.730;2023-07-13T13:18:23;8.73;;;2.30;;
51981;SDS011;37998;53.416;6.730;2023-07-13T13:20:50;8.63;;;2.30;;
51981;SDS011;37998;53.416;6.730;2023-07-13T13:23:20;6.30;;;2.13;;
51981;SDS011;37998;53.416;6.730;2023-07-13T13:25:49;8.50;;;2.20;;
51981;SDS011;37998;53.416;6.730;2023-07-13T13:28:19;7.90;;;2.20;;
51981;SDS011;37998;53.416;6.730;2023-07-13T13:30:49;7.05;;;2.35;;
51981;SDS011;37998;53.416;6.730;2023-07-13T13:33:18;5.22;;;2.15;;
51981;SDS011;37998;53.416;6.730;2023-07-13T13:35:46;10.52;;;2.40;;
51981;SDS011;37998;53.416;6.730;2023-07-13T13:38:16;6.53;;;2.30;;
51981;SDS011;37998;53.416;6.730;2023-07-13T13:40:45;7.50;;;2.55;;
51981;SDS011;37998;53.416;6.730;2023-07-13T13:45:44;8.30;;;3.05;;
51981;SDS011;37998;53.416;6.730;2023-07-13T13:48:16;5.50;;;2.33;;
51981;SDS011;37998;53.416;6.730;2023-07-13T13:50:44;8.93;;;2.53;;
51981;SDS011;37998;53.416;6.730;2023-07-13T13:53:11;5.80;;;2.38;;
51981;SDS011;37998;53.416;6.730;2023-07-13T13:55:41;7.40;;;2.30;;
51981;SDS011;37998;53.416;6.730;2023-07-13T13:58:08;6.80;;;2.10;;
51981;SDS011;37998;53.416;6.730;2023-07-13T14:00:35;6.03;;;2.38;;
51981;SDS011;37998;53.416;6.730;2023-07-13T14:03:03;9.05;;;2.67;;
51981;SDS011;37998;53.416;6.730;2023-07-13T14:05:29;4.82;;;2.20;;
51981;SDS011;37998;53.416;6.730;2023-07-13T14:07:55;4.68;;;2.45;;
51981;SDS011;37998;53.416;6.730;2023-07-13T14:10:25;6.50;;;2.35;;
51981;SDS011;37998;53.416;6.730;2023-07-13T14:12:54;8.05;;;2.47;;
51981;SDS011;37998;53.416;6.730;2023-07-13T14:15:26;7.78;;;1.90;;
51981;SDS011;37998;53.416;6.730;2023-07-13T14:17:56;6.03;;;2.45;;
51981;SDS011;37998;53.416;6.730;2023-07-13T14:20:24;4.25;;;2.40;;
51981;SDS011;37998;53.416;6.730;2023-07-13T14:22:55;6.97;;;2.45;;
51981;SDS011;37998;53.416;6.730;2023-07-13T14:25:23;5.47;;;2.45;;
51981;SDS011;37998;53.416;6.730;2023-07-13T14:27:55;5.97;;;2.03;;
51981;SDS011;37998;53.416;6.730;2023-07-13T14:30:24;7.75;;;2.40;;
51981;SDS011;37998;53.416;6.730;2023-07-13T14:32:51;16.67;;;2.67;;
51981;SDS011;37998;53.416;6.730;2023-07-13T14:35:18;4.72;;;1.83;;
51981;SDS011;37998;53.416;6.730;2023-07-13T14:37:47;10.48;;;2.15;;
51981;SDS011;37998;53.416;6.730;2023-07-13T14:40:21;4.70;;;1.73;;
51981;SDS011;37998;53.416;6.730;2023-07-13T14:42:51;10.55;;;2.70;;
51981;SDS011;37998;53.416;6.730;2023-07-13T14:45:18;8.32;;;2.47;;
51981;SDS011;37998;53.416;6.730;2023-07-13T14:47:45;5.00;;;2.22;;
51981;SDS011;37998;53.416;6.730;2023-07-13T14:50:19;6.35;;;1.98;;
51981;SDS011;37998;53.416;6.730;2023-07-13T14:52:55;10.98;;;2.67;;
51981;SDS011;37998;53.416;6.730;2023-07-13T14:55:21;9.73;;;2.10;;
51981;SDS011;37998;53.416;6.730;2023-07-13T14:57:48;7.53;;;2.60;;
51981;SDS011;37998;53.416;6.730;2023-07-13T15:00:16;6.40;;;2.20;;
51981;SDS011;37998;53.416;6.730;2023-07-13T15:02:50;8.93;;;3.00;;
51981;SDS011;37998;53.416;6.730;2023-07-13T15:05:24;6.70;;;2.25;;
51981;SDS011;37998;53.416;6.730;2023-07-13T15:07:53;10.90;;;2.47;;
51981;SDS011;37998;53.416;6.730;2023-07-13T15:10:24;6.30;;;2.30;;
51981;SDS011;37998;53.416;6.730;2023-07-13T15:12:52;7.30;;;2.30;;
51981;SDS011;37998;53.416;6.730;2023-07-13T15:15:18;51.20;;;6.03;;
51981;SDS011;37998;53.416;6.730;2023-07-13T15:17:46;14.05;;;3.20;;
51981;SDS011;37998;53.416;6.730;2023-07-13T15:20:25;5.18;;;2.20;;
51981;SDS011;37998;53.416;6.730;2023-07-13T15:22:57;5.57;;;2.15;;
51981;SDS011;37998;53.416;6.730;2023-07-13T15:25:25;6.57;;;2.50;;
51981;SDS011;37998;53.416;6.730;2023-07-13T15:27:53;6.57;;;2.10;;
51981;SDS011;37998;53.416;6.730;2023-07-13T15:30:22;6.90;;;2.17;;
51981;SDS011;37998;53.416;6.730;2023-07-13T15:32:54;11.18;;;2.30;;
51981;SDS011;37998;53.416;6.730;2023-07-13T15:35:25;5.63;;;2.15;;
51981;SDS011;37998;53.416;6.730;2023-07-13T15:37:52;5.03;;;2.30;;
51981;SDS011;37998;53.416;6.730;2023-07-13T15:40:18;6.45;;;2.80;;
51981;SDS011;37998;53.416;6.730;2023-07-13T15:42:47;4.75;;;2.00;;